sensor_id;sensor_type;location;lat;lon;timestamp;P1;durP1;ratioP1;P2;durP2;ratioP2
44822;SDS011;51097;51.984;5.650;2023-05-16T00:02:13;11.52;;;3.38;;
44822;SDS011;51097;51.984;5.650;2023-05-16T00:04:40;11.88;;;2.80;;
44822;SDS011;51097;51.984;5.650;2023-05-16T00:07:05;15.95;;;3.53;;
44822;SDS011;51097;51.984;5.650;2023-05-16T00:09:31;10.68;;;4.50;;
44822;SDS011;51097;51.984;5.650;2023-05-16T00:11:56;10.68;;;3.50;;
44822;SDS011;51097;51.984;5.650;2023-05-16T00:14:22;9.93;;;2.42;;
44822;SDS011;51097;51.984;5.650;2023-05-16T00:16:50;14.38;;;3.50;;
44822;SDS011;51097;51.984;5.650;2023-05-16T00:19:17;9.38;;;2.92;;
44822;SDS011;51097;51.984;5.650;2023-05-16T00:21:42;13.18;;;3.08;;
44822;SDS011;51097;51.984;5.650;2023-05-16T00:24:08;12.13;;;3.30;;
44822;SDS011;51097;51.984;5.650;2023-05-16T00:26:34;8.63;;;2.88;;
44822;SDS011;51097;51.984;5.650;2023-05-16T00:29:00;12.93;;;3.17;;
44822;SDS011;51097;51.984;5.650;2023-05-16T00:31:26;13.73;;;3.60;;
44822;SDS011;51097;51.984;5.650;2023-05-16T00:33:52;10.60;;;2.80;;
44822;SDS011;51097;51.984;5.650;2023-05-16T00:36:18;11.45;;;3.00;;
44822;SDS011;51097;51.984;5.650;2023-05-16T00:38:44;11.82;;;4.53;;
44822;SDS011;51097;51.984;5.650;2023-05-16T00:41:10;11.60;;;2.60;;
44822;SDS011;51097;51.984;5.650;2023-05-16T00:43:36;8.65;;;2.67;;
44822;SDS011;51097;51.984;5.650;2023-05-16T00:46:03;12.82;;;3.75;;
44822;SDS011;51097;51.984;5.650;2023-05-16T00:48:29;10.73;;;2.72;;
44822;SDS011;51097;51.984;5.650;2023-05-16T00:50:54;11.55;;;2.58;;
44822;SDS011;51097;51.984;5.650;2023-05-16T00:53:21;11.63;;;3.03;;
44822;SDS011;51097;51.984;5.650;2023-05-16T00:55:48;12.43;;;3.72;;
44822;SDS011;51097;51.984;5.650;2023-05-16T00:58:13;11.52;;;3.22;;
44822;SDS011;51097;51.984;5.650;2023-05-16T01:00:40;13.10;;;3.10;;
44822;SDS011;51097;51.984;5.650;2023-05-16T01:03:05;13.52;;;5.30;;
44822;SDS011;51097;51.984;5.650;2023-05-16T01:05:31;9.70;;;3.92;;
44822;SDS011;51097;51.984;5.650;2023-05-16T01:07:57;12.93;;;3.40;;
44822;SDS011;51097;51.984;5.650;2023-05-16T01:10:23;13.75;;;3.25;;
44822;SDS011;51097;51.984;5.650;2023-05-16T01:12:55;12.68;;;3.28;;
44822;SDS011;51097;51.984;5.650;2023-05-16T01:15:46;12.10;;;3.05;;
44822;SDS011;51097;51.984;5.650;2023-05-16T01:18:38;8.95;;;3.15;;
44822;SDS011;51097;51.984;5.650;2023-05-16T01:21:11;8.60;;;2.70;;
44822;SDS011;51097;51.984;5.650;2023-05-16T01:26:33;16.00;;;3.58;;
44822;SDS011;51097;51.984;5.650;2023-05-16T01:29:00;14.60;;;2.95;;
44822;SDS011;51097;51.984;5.650;2023-05-16T01:31:27;9.68;;;2.58;;
44822;SDS011;51097;51.984;5.650;2023-05-16T01:33:53;10.00;;;3.20;;
44822;SDS011;51097;51.984;5.650;2023-05-16T01:41:39;12.82;;;2.95;;
44822;SDS011;51097;51.984;5.650;2023-05-16T01:44:40;7.97;;;2.50;;
44822;SDS011;51097;51.984;5.650;2023-05-16T01:47:01;7.65;;;2.20;;
44822;SDS011;51097;51.984;5.650;2023-05-16T01:49:35;8.02;;;2.38;;
44822;SDS011;51097;51.984;5.650;2023-05-16T01:52:10;17.20;;;3.28;;
44822;SDS011;51097;51.984;5.650;2023-05-16T01:54:44;4.55;;;2.00;;
44822;SDS011;51097;51.984;5.650;2023-05-16T01:57:11;14.93;;;2.67;;
44822;SDS011;51097;51.984;5.650;2023-05-16T01:59:38;9.93;;;2.28;;
44822;SDS011;51097;51.984;5.650;2023-05-16T02:02:06;16.00;;;2.80;;
44822;SDS011;51097;51.984;5.650;2023-05-16T02:04:32;8.13;;;2.85;;
44822;SDS011;51097;51.984;5.650;2023-05-16T02:06:58;9.30;;;2.80;;
44822;SDS011;51097;51.984;5.650;2023-05-16T02:09:25;9.50;;;2.90;;
44822;SDS011;51097;51.984;5.650;2023-05-16T02:11:50;13.80;;;2.75;;
44822;SDS011;51097;51.984;5.650;2023-05-16T02:14:16;7.70;;;2.33;;
44822;SDS011;51097;51.984;5.650;2023-05-16T02:16:41;10.48;;;2.70;;
44822;SDS011;51097;51.984;5.650;2023-05-16T02:19:07;11.68;;;3.47;;
44822;SDS011;51097;51.984;5.650;2023-05-16T02:21:33;18.15;;;3.45;;
44822;SDS011;51097;51.984;5.650;2023-05-16T02:23:58;11.82;;;3.42;;
44822;SDS011;51097;51.984;5.650;2023-05-16T02:26:24;14.50;;;2.85;;
44822;SDS011;51097;51.984;5.650;2023-05-16T02:28:49;9.55;;;3.03;;
44822;SDS011;51097;51.984;5.650;2023-05-16T02:31:25;6.78;;;2.33;;
44822;SDS011;51097;51.984;5.650;2023-05-16T02:33:51;13.63;;;2.28;;
44822;SDS011;51097;51.984;5.650;2023-05-16T02:36:17;10.60;;;3.03;;
44822;SDS011;51097;51.984;5.650;2023-05-16T02:38:42;13.98;;;3.08;;
44822;SDS011;51097;51.984;5.650;2023-05-16T02:41:08;12.30;;;2.55;;
44822;SDS011;51097;51.984;5.650;2023-05-16T02:43:33;13.00;;;2.67;;
44822;SDS011;51097;51.984;5.650;2023-05-16T02:45:59;10.57;;;2.47;;
44822;SDS011;51097;51.984;5.650;2023-05-16T02:48:25;7.07;;;3.50;;
44822;SDS011;51097;51.984;5.650;2023-05-16T02:50:50;10.75;;;2.40;;
44822;SDS011;51097;51.984;5.650;2023-05-16T02:53:17;12.32;;;2.63;;
44822;SDS011;51097;51.984;5.650;2023-05-16T02:55:42;8.95;;;2.47;;
44822;SDS011;51097;51.984;5.650;2023-05-16T02:58:08;9.50;;;2.53;;
44822;SDS011;51097;51.984;5.650;2023-05-16T03:00:33;12.40;;;2.22;;
44822;SDS011;51097;51.984;5.650;2023-05-16T03:02:59;18.95;;;3.53;;
44822;SDS011;51097;51.984;5.650;2023-05-16T03:05:25;8.30;;;2.58;;
44822;SDS011;51097;51.984;5.650;2023-05-16T03:07:50;12.98;;;2.58;;
44822;SDS011;51097;51.984;5.650;2023-05-16T03:10:16;19.30;;;3.53;;
44822;SDS011;51097;51.984;5.650;2023-05-16T03:12:41;16.42;;;2.88;;
44822;SDS011;51097;51.984;5.650;2023-05-16T03:15:07;9.18;;;2.90;;
44822;SDS011;51097;51.984;5.650;2023-05-16T03:17:33;4.90;;;2.30;;
44822;SDS011;51097;51.984;5.650;2023-05-16T03:19:59;10.63;;;2.78;;
44822;SDS011;51097;51.984;5.650;2023-05-16T03:22:25;6.00;;;2.03;;
44822;SDS011;51097;51.984;5.650;2023-05-16T03:24:50;11.68;;;2.15;;
44822;SDS011;51097;51.984;5.650;2023-05-16T03:27:16;10.55;;;3.63;;
44822;SDS011;51097;51.984;5.650;2023-05-16T03:29:41;10.43;;;2.58;;
44822;SDS011;51097;51.984;5.650;2023-05-16T03:32:07;8.75;;;2.47;;
44822;SDS011;51097;51.984;5.650;2023-05-16T03:34:34;8.00;;;2.15;;
44822;SDS011;51097;51.984;5.650;2023-05-16T03:37:00;9.98;;;3.10;;
44822;SDS011;51097;51.984;5.650;2023-05-16T03:39:25;12.98;;;2.92;;
44822;SDS011;51097;51.984;5.650;2023-05-16T03:41:51;7.57;;;2.55;;
44822;SDS011;51097;51.984;5.650;2023-05-16T03:44:20;7.35;;;2.17;;
44822;SDS011;51097;51.984;5.650;2023-05-16T03:46:45;8.05;;;2.30;;
44822;SDS011;51097;51.984;5.650;2023-05-16T03:49:11;10.63;;;3.33;;
44822;SDS011;51097;51.984;5.650;2023-05-16T03:51:36;8.15;;;2.20;;
44822;SDS011;51097;51.984;5.650;2023-05-16T03:54:02;6.15;;;3.30;;
44822;SDS011;51097;51.984;5.650;2023-05-16T03:56:28;11.15;;;2.42;;
44822;SDS011;51097;51.984;5.650;2023-05-16T03:58:53;9.35;;;2.58;;
44822;SDS011;51097;51.984;5.650;2023-05-16T04:01:19;11.40;;;2.80;;
44822;SDS011;51097;51.984;5.650;2023-05-16T04:03:44;8.65;;;2.13;;
44822;SDS011;51097;51.984;5.650;2023-05-16T04:06:10;12.00;;;2.55;;
44822;SDS011;51097;51.984;5.650;2023-05-16T04:08:35;9.88;;;2.00;;
44822;SDS011;51097;51.984;5.650;2023-05-16T04:11:03;9.88;;;3.63;;
44822;SDS011;51097;51.984;5.650;2023-05-16T04:13:29;12.95;;;2.75;;
44822;SDS011;51097;51.984;5.650;2023-05-16T04:15:55;11.05;;;3.38;;
44822;SDS011;51097;51.984;5.650;2023-05-16T04:18:20;10.55;;;2.63;;
44822;SDS011;51097;51.984;5.650;2023-05-16T04:20:46;16.02;;;3.50;;
44822;SDS011;51097;51.984;5.650;2023-05-16T04:23:11;15.20;;;3.28;;
44822;SDS011;51097;51.984;5.650;2023-05-16T04:25:37;9.80;;;3.45;;
44822;SDS011;51097;51.984;5.650;2023-05-16T04:28:02;11.85;;;2.65;;
44822;SDS011;51097;51.984;5.650;2023-05-16T04:30:28;13.38;;;2.95;;
44822;SDS011;51097;51.984;5.650;2023-05-16T04:32:54;8.13;;;2.70;;
44822;SDS011;51097;51.984;5.650;2023-05-16T04:35:21;10.05;;;2.53;;
44822;SDS011;51097;51.984;5.650;2023-05-16T04:37:46;11.52;;;2.88;;
44822;SDS011;51097;51.984;5.650;2023-05-16T04:40:12;6.22;;;2.42;;
44822;SDS011;51097;51.984;5.650;2023-05-16T04:42:38;12.93;;;3.00;;
44822;SDS011;51097;51.984;5.650;2023-05-16T04:45:04;13.95;;;3.97;;
44822;SDS011;51097;51.984;5.650;2023-05-16T04:47:34;12.63;;;2.90;;
44822;SDS011;51097;51.984;5.650;2023-05-16T04:50:00;9.27;;;2.67;;
44822;SDS011;51097;51.984;5.650;2023-05-16T04:52:26;14.77;;;2.83;;
44822;SDS011;51097;51.984;5.650;2023-05-16T04:54:52;16.20;;;4.03;;
44822;SDS011;51097;51.984;5.650;2023-05-16T04:57:18;10.98;;;3.05;;
44822;SDS011;51097;51.984;5.650;2023-05-16T04:59:43;12.30;;;4.38;;
44822;SDS011;51097;51.984;5.650;2023-05-16T05:02:09;13.27;;;4.65;;
44822;SDS011;51097;51.984;5.650;2023-05-16T05:04:35;12.50;;;3.15;;
44822;SDS011;51097;51.984;5.650;2023-05-16T05:07:00;16.35;;;3.70;;
44822;SDS011;51097;51.984;5.650;2023-05-16T05:09:26;9.05;;;2.63;;
44822;SDS011;51097;51.984;5.650;2023-05-16T05:11:52;11.05;;;3.42;;
44822;SDS011;51097;51.984;5.650;2023-05-16T05:14:17;7.97;;;2.78;;
44822;SDS011;51097;51.984;5.650;2023-05-16T05:16:45;14.52;;;3.55;;
44822;SDS011;51097;51.984;5.650;2023-05-16T05:19:13;9.80;;;3.20;;
44822;SDS011;51097;51.984;5.650;2023-05-16T05:21:46;7.50;;;2.42;;
44822;SDS011;51097;51.984;5.650;2023-05-16T05:24:11;12.80;;;2.72;;
44822;SDS011;51097;51.984;5.650;2023-05-16T06:18:07;9.00;;;2.47;;
44822;SDS011;51097;51.984;5.650;2023-05-16T06:20:33;10.50;;;2.30;;
44822;SDS011;51097;51.984;5.650;2023-05-16T06:23:00;9.90;;;2.42;;
44822;SDS011;51097;51.984;5.650;2023-05-16T06:25:25;4.32;;;1.70;;
44822;SDS011;51097;51.984;5.650;2023-05-16T06:27:51;7.82;;;1.85;;
44822;SDS011;51097;51.984;5.650;2023-05-16T06:30:16;9.02;;;1.77;;
44822;SDS011;51097;51.984;5.650;2023-05-16T06:32:42;8.65;;;1.90;;
44822;SDS011;51097;51.984;5.650;2023-05-16T06:35:08;10.80;;;1.63;;
44822;SDS011;51097;51.984;5.650;2023-05-16T06:37:33;11.73;;;2.90;;
44822;SDS011;51097;51.984;5.650;2023-05-16T06:39:59;7.75;;;1.88;;
44822;SDS011;51097;51.984;5.650;2023-05-16T06:42:25;10.35;;;2.38;;
44822;SDS011;51097;51.984;5.650;2023-05-16T06:44:50;6.95;;;2.25;;
44822;SDS011;51097;51.984;5.650;2023-05-16T06:47:16;6.97;;;1.45;;
44822;SDS011;51097;51.984;5.650;2023-05-16T06:49:42;7.13;;;1.45;;
44822;SDS011;51097;51.984;5.650;2023-05-16T06:52:07;14.68;;;1.98;;
44822;SDS011;51097;51.984;5.650;2023-05-16T06:54:33;11.35;;;1.88;;
44822;SDS011;51097;51.984;5.650;2023-05-16T06:56:59;12.57;;;2.22;;
44822;SDS011;51097;51.984;5.650;2023-05-16T06:59:24;6.63;;;1.75;;
44822;SDS011;51097;51.984;5.650;2023-05-16T07:01:50;6.97;;;1.90;;
44822;SDS011;51097;51.984;5.650;2023-05-16T07:04:15;5.38;;;1.90;;
44822;SDS011;51097;51.984;5.650;2023-05-16T07:06:41;7.28;;;1.50;;
44822;SDS011;51097;51.984;5.650;2023-05-16T07:09:07;7.72;;;1.25;;
44822;SDS011;51097;51.984;5.650;2023-05-16T07:11:32;6.15;;;1.23;;
44822;SDS011;51097;51.984;5.650;2023-05-16T07:13:58;6.88;;;1.20;;
44822;SDS011;51097;51.984;5.650;2023-05-16T07:16:23;5.47;;;1.30;;
44822;SDS011;51097;51.984;5.650;2023-05-16T07:18:52;8.32;;;1.38;;
44822;SDS011;51097;51.984;5.650;2023-05-16T07:21:18;7.63;;;1.73;;
44822;SDS011;51097;51.984;5.650;2023-05-16T07:23:43;4.68;;;1.02;;
44822;SDS011;51097;51.984;5.650;2023-05-16T07:26:09;6.43;;;1.58;;
44822;SDS011;51097;51.984;5.650;2023-05-16T07:28:35;7.88;;;2.67;;
44822;SDS011;51097;51.984;5.650;2023-05-16T07:31:00;7.70;;;1.35;;
44822;SDS011;51097;51.984;5.650;2023-05-16T07:33:26;4.45;;;0.95;;
44822;SDS011;51097;51.984;5.650;2023-05-16T07:35:51;3.92;;;1.48;;
44822;SDS011;51097;51.984;5.650;2023-05-16T07:38:19;9.18;;;2.35;;
44822;SDS011;51097;51.984;5.650;2023-05-16T07:40:46;3.00;;;1.08;;
44822;SDS011;51097;51.984;5.650;2023-05-16T07:43:11;5.22;;;1.40;;
44822;SDS011;51097;51.984;5.650;2023-05-16T07:45:37;4.93;;;1.58;;
44822;SDS011;51097;51.984;5.650;2023-05-16T07:48:03;6.90;;;1.40;;
44822;SDS011;51097;51.984;5.650;2023-05-16T07:50:28;6.40;;;1.58;;
44822;SDS011;51097;51.984;5.650;2023-05-16T07:52:54;4.65;;;1.23;;
44822;SDS011;51097;51.984;5.650;2023-05-16T07:55:20;5.32;;;0.98;;
44822;SDS011;51097;51.984;5.650;2023-05-16T07:57:46;2.97;;;1.25;;
44822;SDS011;51097;51.984;5.650;2023-05-16T08:00:12;5.72;;;2.03;;
44822;SDS011;51097;51.984;5.650;2023-05-16T08:02:38;3.92;;;1.02;;
44822;SDS011;51097;51.984;5.650;2023-05-16T08:05:05;5.43;;;1.13;;
44822;SDS011;51097;51.984;5.650;2023-05-16T08:07:31;4.05;;;1.20;;
44822;SDS011;51097;51.984;5.650;2023-05-16T08:09:57;5.22;;;1.58;;
44822;SDS011;51097;51.984;5.650;2023-05-16T08:12:23;4.95;;;1.00;;
44822;SDS011;51097;51.984;5.650;2023-05-16T08:14:49;5.00;;;0.90;;
44822;SDS011;51097;51.984;5.650;2023-05-16T08:17:14;6.28;;;1.00;;
44822;SDS011;51097;51.984;5.650;2023-05-16T08:19:40;6.97;;;1.00;;
44822;SDS011;51097;51.984;5.650;2023-05-16T08:22:06;7.72;;;1.75;;
44822;SDS011;51097;51.984;5.650;2023-05-16T08:24:33;6.18;;;0.85;;
44822;SDS011;51097;51.984;5.650;2023-05-16T08:26:59;5.38;;;1.20;;
44822;SDS011;51097;51.984;5.650;2023-05-16T08:29:25;3.58;;;1.10;;
44822;SDS011;51097;51.984;5.650;2023-05-16T08:31:51;2.72;;;0.68;;
44822;SDS011;51097;51.984;5.650;2023-05-16T08:34:16;2.42;;;0.73;;
44822;SDS011;51097;51.984;5.650;2023-05-16T08:36:42;3.40;;;0.70;;
44822;SDS011;51097;51.984;5.650;2023-05-16T08:39:08;4.38;;;0.80;;
44822;SDS011;51097;51.984;5.650;2023-05-16T08:41:35;6.20;;;1.20;;
44822;SDS011;51097;51.984;5.650;2023-05-16T08:44:01;6.07;;;1.95;;
44822;SDS011;51097;51.984;5.650;2023-05-16T08:46:27;1.90;;;0.90;;
44822;SDS011;51097;51.984;5.650;2023-05-16T08:48:53;2.47;;;0.50;;
44822;SDS011;51097;51.984;5.650;2023-05-16T08:51:24;2.13;;;1.52;;
44822;SDS011;51097;51.984;5.650;2023-05-16T08:53:56;1.77;;;0.70;;
44822;SDS011;51097;51.984;5.650;2023-05-16T08:56:28;3.70;;;0.90;;
44822;SDS011;51097;51.984;5.650;2023-05-16T08:58:54;3.60;;;0.65;;
44822;SDS011;51097;51.984;5.650;2023-05-16T09:01:22;3.22;;;1.00;;
44822;SDS011;51097;51.984;5.650;2023-05-16T09:03:48;2.22;;;0.73;;
44822;SDS011;51097;51.984;5.650;2023-05-16T09:06:15;5.07;;;0.88;;
44822;SDS011;51097;51.984;5.650;2023-05-16T09:08:41;2.20;;;0.80;;
44822;SDS011;51097;51.984;5.650;2023-05-16T09:11:06;4.25;;;1.00;;
44822;SDS011;51097;51.984;5.650;2023-05-16T09:13:33;5.53;;;1.58;;
44822;SDS011;51097;51.984;5.650;2023-05-16T09:16:12;5.03;;;0.90;;
44822;SDS011;51097;51.984;5.650;2023-05-16T09:18:39;5.10;;;0.98;;
44822;SDS011;51097;51.984;5.650;2023-05-16T09:21:08;6.40;;;1.17;;
44822;SDS011;51097;51.984;5.650;2023-05-16T09:23:35;4.43;;;1.10;;
44822;SDS011;51097;51.984;5.650;2023-05-16T09:26:01;4.70;;;1.35;;
44822;SDS011;51097;51.984;5.650;2023-05-16T09:28:27;4.15;;;1.05;;
44822;SDS011;51097;51.984;5.650;2023-05-16T09:30:54;4.65;;;1.05;;
44822;SDS011;51097;51.984;5.650;2023-05-16T09:33:23;6.43;;;1.45;;
44822;SDS011;51097;51.984;5.650;2023-05-16T09:35:54;5.50;;;1.45;;
44822;SDS011;51097;51.984;5.650;2023-05-16T09:38:21;11.30;;;2.65;;
44822;SDS011;51097;51.984;5.650;2023-05-16T09:40:46;5.35;;;1.40;;
44822;SDS011;51097;51.984;5.650;2023-05-16T09:43:15;3.42;;;0.90;;
44822;SDS011;51097;51.984;5.650;2023-05-16T09:45:44;9.20;;;1.65;;
44822;SDS011;51097;51.984;5.650;2023-05-16T09:48:11;4.13;;;0.88;;
44822;SDS011;51097;51.984;5.650;2023-05-16T09:50:39;3.75;;;1.20;;
44822;SDS011;51097;51.984;5.650;2023-05-16T09:53:06;7.82;;;1.45;;
44822;SDS011;51097;51.984;5.650;2023-05-16T09:55:32;4.07;;;0.90;;
44822;SDS011;51097;51.984;5.650;2023-05-16T09:57:57;4.93;;;0.98;;
44822;SDS011;51097;51.984;5.650;2023-05-16T10:00:32;5.30;;;1.30;;
44822;SDS011;51097;51.984;5.650;2023-05-16T10:02:59;5.78;;;1.10;;
44822;SDS011;51097;51.984;5.650;2023-05-16T10:05:27;6.38;;;1.00;;
44822;SDS011;51097;51.984;5.650;2023-05-16T10:07:56;4.72;;;1.48;;
44822;SDS011;51097;51.984;5.650;2023-05-16T10:10:22;6.87;;;1.53;;
44822;SDS011;51097;51.984;5.650;2023-05-16T10:12:49;4.05;;;1.10;;
44822;SDS011;51097;51.984;5.650;2023-05-16T10:15:15;3.63;;;0.95;;
44822;SDS011;51097;51.984;5.650;2023-05-16T10:17:42;3.15;;;0.75;;
44822;SDS011;51097;51.984;5.650;2023-05-16T10:20:13;5.32;;;1.15;;
44822;SDS011;51097;51.984;5.650;2023-05-16T10:22:41;2.72;;;1.20;;
44822;SDS011;51097;51.984;5.650;2023-05-16T10:25:19;4.00;;;1.20;;
44822;SDS011;51097;51.984;5.650;2023-05-16T10:27:57;6.63;;;1.40;;
44822;SDS011;51097;51.984;5.650;2023-05-16T10:30:24;4.43;;;1.10;;
44822;SDS011;51097;51.984;5.650;2023-05-16T10:32:50;4.50;;;1.27;;
44822;SDS011;51097;51.984;5.650;2023-05-16T10:35:17;4.03;;;1.25;;
44822;SDS011;51097;51.984;5.650;2023-05-16T10:37:43;4.68;;;1.67;;
44822;SDS011;51097;51.984;5.650;2023-05-16T10:40:10;5.60;;;1.60;;
44822;SDS011;51097;51.984;5.650;2023-05-16T10:42:37;4.28;;;0.98;;
44822;SDS011;51097;51.984;5.650;2023-05-16T10:45:15;4.93;;;1.38;;
44822;SDS011;51097;51.984;5.650;2023-05-16T10:47:56;7.95;;;1.17;;
44822;SDS011;51097;51.984;5.650;2023-05-16T10:53:16;5.95;;;2.20;;
44822;SDS011;51097;51.984;5.650;2023-05-16T10:55:49;4.72;;;1.10;;
44822;SDS011;51097;51.984;5.650;2023-05-16T11:01:14;6.10;;;1.08;;
44822;SDS011;51097;51.984;5.650;2023-05-16T11:14:28;5.05;;;1.67;;
44822;SDS011;51097;51.984;5.650;2023-05-16T11:17:11;3.33;;;0.95;;
44822;SDS011;51097;51.984;5.650;2023-05-16T11:19:42;5.00;;;1.92;;
44822;SDS011;51097;51.984;5.650;2023-05-16T11:22:20;3.42;;;0.90;;
44822;SDS011;51097;51.984;5.650;2023-05-16T11:25:01;2.70;;;0.90;;
44822;SDS011;51097;51.984;5.650;2023-05-16T11:27:32;4.55;;;1.40;;
44822;SDS011;51097;51.984;5.650;2023-05-16T11:32:34;3.63;;;0.95;;
44822;SDS011;51097;51.984;5.650;2023-05-16T11:35:01;5.93;;;1.05;;
44822;SDS011;51097;51.984;5.650;2023-05-16T11:37:28;6.53;;;1.23;;
44822;SDS011;51097;51.984;5.650;2023-05-16T11:39:57;6.63;;;2.30;;
44822;SDS011;51097;51.984;5.650;2023-05-16T11:42:32;4.85;;;1.42;;
44822;SDS011;51097;51.984;5.650;2023-05-16T11:45:09;5.00;;;1.58;;
44822;SDS011;51097;51.984;5.650;2023-05-16T11:47:37;2.60;;;1.00;;
44822;SDS011;51097;51.984;5.650;2023-05-16T11:50:22;4.65;;;1.20;;
44822;SDS011;51097;51.984;5.650;2023-05-16T11:52:52;3.35;;;1.38;;
44822;SDS011;51097;51.984;5.650;2023-05-16T11:55:20;3.95;;;1.58;;
44822;SDS011;51097;51.984;5.650;2023-05-16T11:57:48;3.95;;;1.30;;
44822;SDS011;51097;51.984;5.650;2023-05-16T12:00:16;5.03;;;1.23;;
44822;SDS011;51097;51.984;5.650;2023-05-16T12:02:44;3.10;;;0.80;;
44822;SDS011;51097;51.984;5.650;2023-05-16T12:05:12;2.75;;;1.10;;
44822;SDS011;51097;51.984;5.650;2023-05-16T12:07:38;3.00;;;0.93;;
44822;SDS011;51097;51.984;5.650;2023-05-16T12:10:08;2.15;;;1.30;;
44822;SDS011;51097;51.984;5.650;2023-05-16T12:12:35;5.72;;;1.77;;
44822;SDS011;51097;51.984;5.650;2023-05-16T12:15:04;5.30;;;1.20;;
44822;SDS011;51097;51.984;5.650;2023-05-16T12:19:59;3.70;;;0.95;;
44822;SDS011;51097;51.984;5.650;2023-05-16T12:22:25;5.22;;;1.55;;
44822;SDS011;51097;51.984;5.650;2023-05-16T12:24:51;3.05;;;1.23;;
44822;SDS011;51097;51.984;5.650;2023-05-16T12:27:26;6.93;;;1.60;;
44822;SDS011;51097;51.984;5.650;2023-05-16T12:29:52;2.60;;;0.82;;
44822;SDS011;51097;51.984;5.650;2023-05-16T12:32:18;5.07;;;1.20;;
44822;SDS011;51097;51.984;5.650;2023-05-16T12:34:51;5.82;;;1.15;;
44822;SDS011;51097;51.984;5.650;2023-05-16T12:37:17;4.47;;;1.00;;
44822;SDS011;51097;51.984;5.650;2023-05-16T12:39:44;3.72;;;0.93;;
44822;SDS011;51097;51.984;5.650;2023-05-16T12:42:11;5.63;;;1.38;;
44822;SDS011;51097;51.984;5.650;2023-05-16T12:44:38;9.45;;;1.90;;
44822;SDS011;51097;51.984;5.650;2023-05-16T12:47:09;4.90;;;1.33;;
44822;SDS011;51097;51.984;5.650;2023-05-16T12:49:36;6.22;;;1.75;;
44822;SDS011;51097;51.984;5.650;2023-05-16T12:52:18;6.90;;;1.15;;
44822;SDS011;51097;51.984;5.650;2023-05-16T12:54:45;5.80;;;1.83;;
44822;SDS011;51097;51.984;5.650;2023-05-16T12:57:13;5.80;;;1.60;;
44822;SDS011;51097;51.984;5.650;2023-05-16T12:59:39;4.15;;;1.08;;
44822;SDS011;51097;51.984;5.650;2023-05-16T13:02:04;5.65;;;1.02;;
44822;SDS011;51097;51.984;5.650;2023-05-16T13:04:31;5.07;;;1.20;;
44822;SDS011;51097;51.984;5.650;2023-05-16T13:06:57;4.22;;;0.95;;
44822;SDS011;51097;51.984;5.650;2023-05-16T13:09:22;2.75;;;1.02;;
44822;SDS011;51097;51.984;5.650;2023-05-16T13:11:48;3.65;;;1.13;;
44822;SDS011;51097;51.984;5.650;2023-05-16T13:14:14;5.32;;;1.52;;
44822;SDS011;51097;51.984;5.650;2023-05-16T13:16:41;3.75;;;1.10;;
44822;SDS011;51097;51.984;5.650;2023-05-16T13:19:07;7.75;;;1.33;;
44822;SDS011;51097;51.984;5.650;2023-05-16T13:21:33;5.35;;;0.90;;
44822;SDS011;51097;51.984;5.650;2023-05-16T13:23:59;5.28;;;1.60;;
44822;SDS011;51097;51.984;5.650;2023-05-16T13:26:25;8.73;;;1.90;;
44822;SDS011;51097;51.984;5.650;2023-05-16T13:28:51;5.72;;;1.85;;
44822;SDS011;51097;51.984;5.650;2023-05-16T13:31:18;7.50;;;1.75;;
44822;SDS011;51097;51.984;5.650;2023-05-16T13:33:44;8.02;;;1.30;;
44822;SDS011;51097;51.984;5.650;2023-05-16T13:36:09;3.10;;;0.90;;
44822;SDS011;51097;51.984;5.650;2023-05-16T13:38:35;5.20;;;1.35;;
44822;SDS011;51097;51.984;5.650;2023-05-16T13:41:01;3.85;;;1.15;;
44822;SDS011;51097;51.984;5.650;2023-05-16T13:43:26;7.63;;;2.70;;
44822;SDS011;51097;51.984;5.650;2023-05-16T13:45:54;3.97;;;1.83;;
44822;SDS011;51097;51.984;5.650;2023-05-16T13:48:21;6.45;;;1.70;;
44822;SDS011;51097;51.984;5.650;2023-05-16T13:50:46;10.75;;;2.15;;
44822;SDS011;51097;51.984;5.650;2023-05-16T13:53:12;4.60;;;1.17;;
44822;SDS011;51097;51.984;5.650;2023-05-16T13:55:37;7.07;;;1.65;;
44822;SDS011;51097;51.984;5.650;2023-05-16T13:58:03;7.07;;;1.40;;
44822;SDS011;51097;51.984;5.650;2023-05-16T14:00:28;4.28;;;1.42;;
44822;SDS011;51097;51.984;5.650;2023-05-16T14:02:54;4.95;;;1.60;;
44822;SDS011;51097;51.984;5.650;2023-05-16T14:05:20;5.13;;;1.38;;
44822;SDS011;51097;51.984;5.650;2023-05-16T14:07:46;3.58;;;1.20;;
44822;SDS011;51097;51.984;5.650;2023-05-16T14:10:11;5.85;;;1.40;;
44822;SDS011;51097;51.984;5.650;2023-05-16T14:12:37;4.20;;;1.10;;
44822;SDS011;51097;51.984;5.650;2023-05-16T14:15:04;3.20;;;1.00;;
44822;SDS011;51097;51.984;5.650;2023-05-16T14:17:30;3.53;;;1.45;;
44822;SDS011;51097;51.984;5.650;2023-05-16T14:19:56;4.25;;;1.10;;
44822;SDS011;51097;51.984;5.650;2023-05-16T14:22:22;5.28;;;1.80;;
44822;SDS011;51097;51.984;5.650;2023-05-16T14:24:47;10.55;;;1.83;;
44822;SDS011;51097;51.984;5.650;2023-05-16T14:27:13;5.63;;;1.33;;
44822;SDS011;51097;51.984;5.650;2023-05-16T14:29:40;5.70;;;1.02;;
44822;SDS011;51097;51.984;5.650;2023-05-16T14:32:06;5.47;;;1.30;;
44822;SDS011;51097;51.984;5.650;2023-05-16T14:34:32;4.00;;;0.90;;
44822;SDS011;51097;51.984;5.650;2023-05-16T14:36:58;5.18;;;1.83;;
44822;SDS011;51097;51.984;5.650;2023-05-16T14:39:23;4.15;;;1.27;;
44822;SDS011;51097;51.984;5.650;2023-05-16T14:41:49;8.23;;;1.20;;
44822;SDS011;51097;51.984;5.650;2023-05-16T14:44:14;4.72;;;1.20;;
44822;SDS011;51097;51.984;5.650;2023-05-16T14:46:40;7.28;;;1.73;;
44822;SDS011;51097;51.984;5.650;2023-05-16T14:49:06;5.53;;;1.15;;
44822;SDS011;51097;51.984;5.650;2023-05-16T14:51:32;4.03;;;1.23;;
44822;SDS011;51097;51.984;5.650;2023-05-16T14:53:58;6.47;;;1.45;;
44822;SDS011;51097;51.984;5.650;2023-05-16T14:56:24;6.47;;;1.25;;
44822;SDS011;51097;51.984;5.650;2023-05-16T14:58:51;6.28;;;1.25;;
44822;SDS011;51097;51.984;5.650;2023-05-16T15:01:17;4.75;;;1.10;;
44822;SDS011;51097;51.984;5.650;2023-05-16T15:03:43;7.90;;;1.73;;
44822;SDS011;51097;51.984;5.650;2023-05-16T15:06:09;7.20;;;1.33;;
44822;SDS011;51097;51.984;5.650;2023-05-16T15:08:35;4.03;;;1.23;;
44822;SDS011;51097;51.984;5.650;2023-05-16T15:11:02;8.10;;;1.75;;
44822;SDS011;51097;51.984;5.650;2023-05-16T15:13:28;6.28;;;1.30;;
44822;SDS011;51097;51.984;5.650;2023-05-16T15:15:53;8.55;;;1.73;;
44822;SDS011;51097;51.984;5.650;2023-05-16T15:18:19;3.97;;;0.88;;
44822;SDS011;51097;51.984;5.650;2023-05-16T15:20:45;5.78;;;0.95;;
44822;SDS011;51097;51.984;5.650;2023-05-16T15:23:11;3.90;;;1.10;;
44822;SDS011;51097;51.984;5.650;2023-05-16T15:25:36;6.45;;;1.10;;
44822;SDS011;51097;51.984;5.650;2023-05-16T15:28:02;4.78;;;1.10;;
44822;SDS011;51097;51.984;5.650;2023-05-16T15:30:28;4.25;;;1.65;;
44822;SDS011;51097;51.984;5.650;2023-05-16T15:32:53;10.10;;;1.73;;
44822;SDS011;51097;51.984;5.650;2023-05-16T15:35:19;4.40;;;0.88;;
44822;SDS011;51097;51.984;5.650;2023-05-16T15:37:44;6.63;;;1.65;;
44822;SDS011;51097;51.984;5.650;2023-05-16T15:40:10;5.32;;;1.38;;
44822;SDS011;51097;51.984;5.650;2023-05-16T15:42:36;3.97;;;1.20;;
44822;SDS011;51097;51.984;5.650;2023-05-16T15:45:02;5.00;;;1.25;;
44822;SDS011;51097;51.984;5.650;2023-05-16T15:47:28;9.13;;;1.67;;
44822;SDS011;51097;51.984;5.650;2023-05-16T15:49:53;6.38;;;1.33;;
44822;SDS011;51097;51.984;5.650;2023-05-16T15:52:19;4.82;;;1.05;;
44822;SDS011;51097;51.984;5.650;2023-05-16T15:54:44;5.00;;;1.00;;
44822;SDS011;51097;51.984;5.650;2023-05-16T15:57:10;6.20;;;1.88;;
44822;SDS011;51097;51.984;5.650;2023-05-16T15:59:35;7.80;;;1.60;;
44822;SDS011;51097;51.984;5.650;2023-05-16T16:02:01;6.03;;;1.15;;
44822;SDS011;51097;51.984;5.650;2023-05-16T16:04:30;4.10;;;1.33;;